Big Bear Station Historical Data
Daily Summary for January 22, 2019 Units:  English    Metric   Both
Next Day »
Daily Weekly Monthly Yearly Custom
  High: Low: Average:
Temperature: 34.2 °F 22.6 °F 27 °F
Dew Point: 19.0 °F -1.4 °F 7 °F
Humidity: 72% 23% 44%
Wind Speed: 12.5mph 0.0mph 4mph
Wind Gust: -999.0mph - -
Wind- - SW
Pressure: 23.69 in 23.45 in -
Precipitation: 0.00 in    
Historical Graphs
 
 
Tabular Data for January 22, 2019
Time Temperature Dew Point Pressure Wind Wind Speed Wind Gust Humidity Rainfall Rate (Hourly)
00:10 26.8 °F 19.0 °F 23.45 in NNW 4.2 mph -999.0 mph 72% 0.00 in
00:25 26.8 °F 19.0 °F 23.45 in NE 4.2 mph -999.0 mph 72% 0.00 in
00:40 26.6 °F 18.5 °F 23.45 in NNE 4.2 mph -999.0 mph 71% 0.00 in
00:56 26.6 °F 17.5 °F 23.46 in NW 4.7 mph -999.0 mph 68% 0.00 in
01:11 26.2 °F 17.4 °F 23.46 in WNW 6.3 mph -999.0 mph 69% 0.00 in
01:26 26.1 °F 17.7 °F 23.46 in NNW 6.3 mph -999.0 mph 70% 0.00 in
01:41 25.9 °F 17.1 °F 23.46 in NNW 6.3 mph -999.0 mph 69% 0.00 in
01:56 25.5 °F 16.7 °F 23.46 in North 4.7 mph -999.0 mph 69% 0.00 in
02:12 25.3 °F 16.6 °F 23.46 in NW 6.3 mph -999.0 mph 69% 0.00 in
02:28 25.0 °F 16.9 °F 23.46 in NW 7.8 mph -999.0 mph 71% 0.00 in
02:43 24.8 °F 16.4 °F 23.46 in West 3.7 mph -999.0 mph 70% 0.00 in
02:58 24.6 °F 15.2 °F 23.46 in NW 7.3 mph -999.0 mph 67% 0.00 in
03:13 25.0 °F 15.2 °F 23.45 in WNW 5.3 mph -999.0 mph 66% 0.00 in
03:29 24.4 °F 14.7 °F 23.46 in NW 9.9 mph -999.0 mph 66% 0.00 in
03:44 24.8 °F 13.3 °F 23.46 in WNW 8.9 mph -999.0 mph 61% 0.00 in
03:59 25.2 °F 12.9 °F 23.45 in North 6.8 mph -999.0 mph 59% 0.00 in
04:15 24.4 °F 11.7 °F 23.46 in West 4.7 mph -999.0 mph 58% 0.00 in
04:30 24.4 °F 12.9 °F 23.46 in North 8.3 mph -999.0 mph 61% 0.00 in
04:45 24.3 °F 13.1 °F 23.47 in NNW 12.5 mph -999.0 mph 62% 0.00 in
05:01 24.3 °F 11.2 °F 23.48 in North 9.9 mph -999.0 mph 57% 0.00 in
05:16 24.1 °F 12.2 °F 23.48 in NW 8.9 mph -999.0 mph 60% 0.00 in
05:32 23.5 °F 12.0 °F 23.48 in NW 4.7 mph -999.0 mph 61% 0.00 in
05:47 23.4 °F 11.2 °F 23.48 in WNW 5.3 mph -999.0 mph 59% 0.00 in
06:03 23.0 °F 11.2 °F 23.49 in West 3.2 mph -999.0 mph 60% 0.00 in
06:18 22.8 °F 10.2 °F 23.49 in SE 3.7 mph -999.0 mph 58% 0.00 in
06:33 22.6 °F 10.8 °F 23.50 in West 3.2 mph -999.0 mph 60% 0.00 in
06:48 23.0 °F 8.8 °F 23.50 in SE 1.7 mph -999.0 mph 54% 0.00 in
07:03 23.4 °F 10.0 °F 23.51 in South 6.3 mph -999.0 mph 56% 0.00 in
07:19 23.4 °F 10.8 °F 23.52 in NNW 3.7 mph -999.0 mph 58% 0.00 in
07:34 23.4 °F 11.2 °F 23.53 in North 4.7 mph -999.0 mph 59% 0.00 in
07:49 23.5 °F 10.5 °F 23.54 in NNE 3.2 mph -999.0 mph 57% 0.00 in
08:05 23.5 °F 9.3 °F 23.55 in East 2.7 mph -999.0 mph 54% 0.00 in
08:20 24.1 °F 9.0 °F 23.55 in NNE 5.8 mph -999.0 mph 52% 0.00 in
08:35 24.6 °F 8.1 °F 23.56 in SE 6.3 mph -999.0 mph 49% 0.00 in
08:50 25.9 °F 8.9 °F 23.56 in NNW 4.2 mph -999.0 mph 48% 0.00 in
09:05 27.0 °F 7.5 °F 23.57 in NW 4.7 mph -999.0 mph 43% 0.00 in
09:21 27.3 °F 6.1 °F 23.57 in NNW 8.9 mph -999.0 mph 40% 0.00 in
09:37 28.0 °F 4.5 °F 23.57 in NNW 5.8 mph -999.0 mph 36% 0.00 in
09:52 28.0 °F 4.5 °F 23.58 in NW 3.2 mph -999.0 mph 36% 0.00 in
10:07 28.6 °F 3.7 °F 23.59 in WNW 5.3 mph -999.0 mph 34% 0.00 in
10:22 29.8 °F 3.5 °F 23.59 in West 6.3 mph -999.0 mph 32% 0.00 in
10:38 30.9 °F 0.0 °F 23.59 in NNE 5.8 mph -999.0 mph 26% 0.00 in
10:53 31.6 °F 1.4 °F 23.59 in NE 5.8 mph -999.0 mph 27% 0.00 in
11:08 32.0 °F 3.3 °F 23.59 in NW 5.3 mph -999.0 mph 29% 0.00 in
11:24 32.2 °F 1.1 °F 23.59 in North 5.3 mph -999.0 mph 26% 0.00 in
11:39 32.0 °F 0.1 °F 23.58 in East 2.7 mph -999.0 mph 25% 0.00 in
11:54 32.4 °F -1.3 °F 23.59 in NW 4.7 mph -999.0 mph 23% 0.00 in
12:10 32.5 °F -1.2 °F 23.59 in North 4.7 mph -999.0 mph 23% 0.00 in
12:25 31.6 °F 5.8 °F 23.58 in NNW 8.3 mph -999.0 mph 33% 0.00 in
12:40 33.1 °F 4.3 °F 23.57 in NW 6.8 mph -999.0 mph 29% 0.00 in
12:55 33.3 °F 3.7 °F 23.58 in SSW 2.7 mph -999.0 mph 28% 0.00 in
13:11 34.2 °F 4.4 °F 23.59 in NNE 2.2 mph -999.0 mph 28% 0.00 in
13:26 31.8 °F 5.9 °F 23.59 in NNE 6.3 mph -999.0 mph 33% 0.00 in
13:41 32.2 °F 5.6 °F 23.59 in ENE 3.7 mph -999.0 mph 32% 0.00 in
13:57 32.5 °F 4.5 °F 23.60 in NW 6.8 mph -999.0 mph 30% 0.00 in
14:12 32.0 °F 4.7 °F 23.59 in NW 8.9 mph -999.0 mph 31% 0.00 in
14:28 31.5 °F 4.3 °F 23.59 in ENE 1.7 mph -999.0 mph 31% 0.00 in
14:43 31.6 °F 3.7 °F 23.60 in SSW 2.7 mph -999.0 mph 30% 0.00 in
14:59 31.6 °F 3.7 °F 23.60 in NNE 3.2 mph -999.0 mph 30% 0.00 in
15:14 31.3 °F 2.7 °F 23.59 in WNW 3.7 mph -999.0 mph 29% 0.00 in
15:29 31.5 °F 2.9 °F 23.60 in NW 4.7 mph -999.0 mph 29% 0.00 in
15:44 31.1 °F 3.2 °F 23.60 in Calm   -999.0 mph 30% 0.00 in
16:00 30.4 °F 4.7 °F 23.60 in West 2.2 mph -999.0 mph 33% 0.00 in
16:15 29.5 °F 4.5 °F 23.60 in SSE 1.1 mph -999.0 mph 34% 0.00 in
16:30 28.6 °F 5.6 °F 23.60 in Calm   -999.0 mph 37% 0.00 in
16:45 27.7 °F 7.0 °F 23.61 in SSE 3.2 mph -999.0 mph 41% 0.00 in
17:00 27.0 °F 4.7 °F 23.62 in Calm   -999.0 mph 38% 0.00 in
17:16 26.4 °F 3.0 °F 23.62 in Calm   -999.0 mph 36% 0.00 in
17:31 26.1 °F 0.9 °F 23.63 in Calm   -999.0 mph 33% 0.00 in
17:46 25.5 °F 5.0 °F 23.63 in Calm   -999.0 mph 41% 0.00 in
18:01 25.3 °F 4.3 °F 23.63 in SW 1.7 mph -999.0 mph 40% 0.00 in
18:16 26.6 °F 3.2 °F 23.63 in South 3.7 mph -999.0 mph 36% 0.00 in
18:32 27.1 °F 2.4 °F 23.64 in SE 3.2 mph -999.0 mph 34% 0.00 in
18:47 27.9 °F 1.8 °F 23.64 in SSW 2.2 mph -999.0 mph 32% 0.00 in
19:02 27.5 °F -1.4 °F 23.65 in West 1.7 mph -999.0 mph 28% 0.00 in
19:17 28.0 °F 3.2 °F 23.65 in SSE 3.2 mph -999.0 mph 34% 0.00 in
19:32 27.1 °F 1.1 °F 23.65 in South 5.3 mph -999.0 mph 32% 0.00 in
19:48 27.0 °F 2.3 °F 23.66 in Calm   -999.0 mph 34% 0.00 in
20:03 26.4 °F 3.6 °F 23.67 in SSE 2.7 mph -999.0 mph 37% 0.00 in
20:18 25.9 °F 3.7 °F 23.68 in SSE 4.2 mph -999.0 mph 38% 0.00 in
20:33 25.9 °F 3.2 °F 23.67 in Calm   -999.0 mph 37% 0.00 in
20:49 25.9 °F 3.7 °F 23.67 in Calm   -999.0 mph 38% 0.00 in
21:04 25.3 °F 4.3 °F 23.68 in Calm   -999.0 mph 40% 0.00 in
21:19 24.6 °F 2.6 °F 23.68 in Calm   -999.0 mph 38% 0.00 in
21:34 24.8 °F 3.3 °F 23.68 in Calm   -999.0 mph 39% 0.00 in
21:49 25.2 °F 3.1 °F 23.68 in Calm   -999.0 mph 38% 0.00 in
22:05 25.0 °F 2.4 °F 23.68 in Calm   -999.0 mph 37% 0.00 in
22:20 25.0 °F 2.9 °F 23.68 in Calm   -999.0 mph 38% 0.00 in
22:35 24.4 °F 0.0 °F 23.68 in Calm   -999.0 mph 34% 0.00 in
22:51 25.2 °F 2.0 °F 23.69 in South 1.7 mph -999.0 mph 36% 0.00 in
23:06 24.1 °F 4.3 °F 23.68 in South 2.7 mph -999.0 mph 42% 0.00 in
23:21 24.3 °F 4.0 °F 23.68 in South 3.7 mph -999.0 mph 41% 0.00 in
23:36 24.3 °F 4.0 °F 23.68 in Calm   -999.0 mph 41% 0.00 in
23:52 24.4 °F 1.8 °F 23.68 in SSW 2.2 mph -999.0 mph 37% 0.00 in
Big Bear CA Weather